sensor_id;sensor_type;location;lat;lon;timestamp;pressure;altitude;pressure_sealevel;temperature;humidity
63281;BME280;49406;51.044;3.766;2023-05-01T00:01:52;101791.17;;;14.04;76.52
63281;BME280;49406;51.044;3.766;2023-05-01T00:04:27;101794.86;;;14.04;76.94
63281;BME280;49406;51.044;3.766;2023-05-01T00:07:01;101791.69;;;14.02;77.20
63281;BME280;49406;51.044;3.766;2023-05-01T00:09:36;101788.52;;;14.02;77.86
63281;BME280;49406;51.044;3.766;2023-05-01T00:12:11;101784.64;;;14.01;78.12
63281;BME280;49406;51.044;3.766;2023-05-01T00:14:45;101781.46;;;13.98;78.44
63281;BME280;49406;51.044;3.766;2023-05-01T00:17:20;101774.90;;;13.94;78.75
63281;BME280;49406;51.044;3.766;2023-05-01T00:19:56;101774.16;;;13.90;79.07
63281;BME280;49406;51.044;3.766;2023-05-01T00:22:30;101770.61;;;13.87;79.47
63281;BME280;49406;51.044;3.766;2023-05-01T00:25:06;101764.79;;;13.83;80.02
63281;BME280;49406;51.044;3.766;2023-05-01T00:27:42;101764.60;;;13.81;80.17
63281;BME280;49406;51.044;3.766;2023-05-01T00:30:17;101760.91;;;13.82;79.98
63281;BME280;49406;51.044;3.766;2023-05-01T00:32:51;101755.56;;;13.75;80.09
63281;BME280;49406;51.044;3.766;2023-05-01T00:35:26;101753.84;;;13.77;80.38
63281;BME280;49406;51.044;3.766;2023-05-01T00:38:00;101752.40;;;13.75;80.87
63281;BME280;49406;51.044;3.766;2023-05-01T00:40:41;101747.05;;;13.67;81.36
63281;BME280;49406;51.044;3.766;2023-05-01T00:43:16;101742.95;;;13.60;82.06
63281;BME280;49406;51.044;3.766;2023-05-01T00:45:51;101740.95;;;13.56;82.44
63281;BME280;49406;51.044;3.766;2023-05-01T00:48:25;101736.38;;;13.53;82.53
63281;BME280;49406;51.044;3.766;2023-05-01T00:51:01;101732.13;;;13.49;82.46
63281;BME280;49406;51.044;3.766;2023-05-01T00:53:36;101724.38;;;13.46;82.87
63281;BME280;49406;51.044;3.766;2023-05-01T00:56:11;101721.90;;;13.45;83.30
63281;BME280;49406;51.044;3.766;2023-05-01T00:58:48;101719.73;;;13.42;83.51
63281;BME280;49406;51.044;3.766;2023-05-01T01:01:24;101707.95;;;13.40;83.74
63281;BME280;49406;51.044;3.766;2023-05-01T01:03:58;101705.11;;;13.37;83.86
63281;BME280;49406;51.044;3.766;2023-05-01T01:06:41;101699.64;;;13.34;83.85
63281;BME280;49406;51.044;3.766;2023-05-01T01:09:30;101698.23;;;13.33;83.89
63281;BME280;49406;51.044;3.766;2023-05-01T01:12:14;101695.95;;;13.33;84.44
63281;BME280;49406;51.044;3.766;2023-05-01T01:15:00;101691.90;;;13.32;84.77
63281;BME280;49406;51.044;3.766;2023-05-01T01:17:41;101685.77;;;13.35;84.79
63281;BME280;49406;51.044;3.766;2023-05-01T01:20:25;101678.98;;;13.42;84.74
63281;BME280;49406;51.044;3.766;2023-05-01T01:23:21;101677.39;;;13.40;84.56
63281;BME280;49406;51.044;3.766;2023-05-01T01:26:06;101675.98;;;13.41;84.88
63281;BME280;49406;51.044;3.766;2023-05-01T01:29:09;101671.09;;;13.42;85.12
63281;BME280;49406;51.044;3.766;2023-05-01T01:31:59;101671.41;;;13.40;85.88
63281;BME280;49406;51.044;3.766;2023-05-01T01:34:41;101665.79;;;13.40;85.72
63281;BME280;49406;51.044;3.766;2023-05-01T01:37:18;101661.04;;;13.38;85.77
63281;BME280;49406;51.044;3.766;2023-05-01T01:39:59;101661.91;;;13.38;86.53
63281;BME280;49406;51.044;3.766;2023-05-01T01:42:39;101654.48;;;13.31;87.39
63281;BME280;49406;51.044;3.766;2023-05-01T01:45:19;101653.70;;;13.24;87.51
63281;BME280;49406;51.044;3.766;2023-05-01T01:47:56;101650.15;;;13.20;87.24
63281;BME280;49406;51.044;3.766;2023-05-01T01:50:32;101646.56;;;13.16;87.16
63281;BME280;49406;51.044;3.766;2023-05-01T01:53:08;101636.16;;;13.12;87.31
63281;BME280;49406;51.044;3.766;2023-05-01T01:55:45;101633.66;;;13.08;87.96
63281;BME280;49406;51.044;3.766;2023-05-01T01:58:19;101629.05;;;13.03;88.33
63281;BME280;49406;51.044;3.766;2023-05-01T02:00:58;101628.48;;;12.99;88.50
63281;BME280;49406;51.044;3.766;2023-05-01T02:03:33;101626.15;;;12.94;88.87
63281;BME280;49406;51.044;3.766;2023-05-01T02:06:11;101625.95;;;12.94;89.16
63281;BME280;49406;51.044;3.766;2023-05-01T02:08:47;101623.59;;;13.02;89.21
63281;BME280;49406;51.044;3.766;2023-05-01T02:11:22;101622.02;;;13.04;89.36
63281;BME280;49406;51.044;3.766;2023-05-01T02:14:00;101617.12;;;13.04;89.71
63281;BME280;49406;51.044;3.766;2023-05-01T02:16:36;101611.48;;;13.03;90.26
63281;BME280;49406;51.044;3.766;2023-05-01T02:19:11;101610.23;;;13.01;90.59
63281;BME280;49406;51.044;3.766;2023-05-01T02:21:44;101604.08;;;12.98;91.15
63281;BME280;49406;51.044;3.766;2023-05-01T02:24:19;101605.14;;;12.99;91.06
63281;BME280;49406;51.044;3.766;2023-05-01T02:26:58;101605.46;;;12.96;90.95
63281;BME280;49406;51.044;3.766;2023-05-01T02:29:34;101601.55;;;12.92;91.57
63281;BME280;49406;51.044;3.766;2023-05-01T02:32:08;101594.65;;;12.87;92.36
63281;BME280;49406;51.044;3.766;2023-05-01T02:34:42;101591.64;;;12.84;92.60
63281;BME280;49406;51.044;3.766;2023-05-01T02:37:17;101592.65;;;12.80;92.38
63281;BME280;49406;51.044;3.766;2023-05-01T02:39:51;101591.02;;;12.76;92.61
63281;BME280;49406;51.044;3.766;2023-05-01T02:42:26;101585.89;;;12.73;92.94
63281;BME280;49406;51.044;3.766;2023-05-01T02:45:04;101585.51;;;12.70;93.34
63281;BME280;49406;51.044;3.766;2023-05-01T02:47:42;101581.60;;;12.65;93.76
63281;BME280;49406;51.044;3.766;2023-05-01T02:50:18;101582.09;;;12.61;93.82
63281;BME280;49406;51.044;3.766;2023-05-01T02:52:52;101583.48;;;12.61;93.99
63281;BME280;49406;51.044;3.766;2023-05-01T02:55:27;101580.41;;;12.69;93.76
63281;BME280;49406;51.044;3.766;2023-05-01T02:58:02;101580.77;;;12.70;94.15
63281;BME280;49406;51.044;3.766;2023-05-01T03:00:36;101578.84;;;12.70;94.54
63281;BME280;49406;51.044;3.766;2023-05-01T03:03:11;101575.35;;;12.72;95.19
63281;BME280;49406;51.044;3.766;2023-05-01T03:05:45;101574.70;;;12.76;95.41
63281;BME280;49406;51.044;3.766;2023-05-01T03:08:20;101572.49;;;12.82;95.09
63281;BME280;49406;51.044;3.766;2023-05-01T03:10:54;101572.11;;;12.80;95.60
63281;BME280;49406;51.044;3.766;2023-05-01T03:13:28;101569.04;;;12.73;96.37
63281;BME280;49406;51.044;3.766;2023-05-01T03:16:03;101571.33;;;12.73;96.54
63281;BME280;49406;51.044;3.766;2023-05-01T03:18:37;101572.52;;;12.70;96.45
63281;BME280;49406;51.044;3.766;2023-05-01T03:21:12;101573.89;;;12.66;96.66
63281;BME280;49406;51.044;3.766;2023-05-01T03:23:46;101567.50;;;12.60;96.95
63281;BME280;49406;51.044;3.766;2023-05-01T03:26:21;101564.11;;;12.55;96.72
63281;BME280;49406;51.044;3.766;2023-05-01T03:28:55;101561.61;;;12.51;96.68
63281;BME280;49406;51.044;3.766;2023-05-01T03:31:30;101559.50;;;12.51;95.86
63281;BME280;49406;51.044;3.766;2023-05-01T03:34:04;101561.31;;;12.56;94.85
63281;BME280;49406;51.044;3.766;2023-05-01T03:36:39;101560.09;;;12.56;94.74
63281;BME280;49406;51.044;3.766;2023-05-01T03:39:13;101561.30;;;12.55;95.27
63281;BME280;49406;51.044;3.766;2023-05-01T03:41:48;101555.66;;;12.52;95.09
63281;BME280;49406;51.044;3.766;2023-05-01T03:44:22;101555.10;;;12.48;95.75
63281;BME280;49406;51.044;3.766;2023-05-01T03:46:57;101556.66;;;12.48;96.05
63281;BME280;49406;51.044;3.766;2023-05-01T03:49:31;101553.86;;;12.47;96.46
63281;BME280;49406;51.044;3.766;2023-05-01T03:52:06;101552.27;;;12.46;96.47
63281;BME280;49406;51.044;3.766;2023-05-01T03:54:40;101554.52;;;12.44;95.49
63281;BME280;49406;51.044;3.766;2023-05-01T03:57:14;101553.25;;;12.42;95.64
63281;BME280;49406;51.044;3.766;2023-05-01T03:59:49;101550.39;;;12.37;95.96
63281;BME280;49406;51.044;3.766;2023-05-01T04:02:23;101552.11;;;12.33;96.55
63281;BME280;49406;51.044;3.766;2023-05-01T04:04:58;101556.80;;;12.29;96.76
63281;BME280;49406;51.044;3.766;2023-05-01T04:07:32;101555.13;;;12.24;97.22
63281;BME280;49406;51.044;3.766;2023-05-01T04:10:08;101556.83;;;12.19;97.39
63281;BME280;49406;51.044;3.766;2023-05-01T04:12:42;101555.27;;;12.20;97.39
63281;BME280;49406;51.044;3.766;2023-05-01T04:15:17;101552.02;;;12.25;96.52
63281;BME280;49406;51.044;3.766;2023-05-01T04:17:51;101550.05;;;12.24;96.31
63281;BME280;49406;51.044;3.766;2023-05-01T04:20:27;101547.95;;;12.25;96.48
63281;BME280;49406;51.044;3.766;2023-05-01T04:23:02;101550.27;;;12.27;96.67
63281;BME280;49406;51.044;3.766;2023-05-01T04:25:37;101552.02;;;12.27;96.77
63281;BME280;49406;51.044;3.766;2023-05-01T04:28:12;101551.45;;;12.24;97.02
63281;BME280;49406;51.044;3.766;2023-05-01T04:30:46;101552.34;;;12.25;96.62
63281;BME280;49406;51.044;3.766;2023-05-01T04:33:21;101550.45;;;12.27;97.29
63281;BME280;49406;51.044;3.766;2023-05-01T04:35:55;101551.11;;;12.25;97.82
63281;BME280;49406;51.044;3.766;2023-05-01T04:38:30;101544.27;;;12.23;98.68
63281;BME280;49406;51.044;3.766;2023-05-01T04:41:05;101546.85;;;12.20;98.76
63281;BME280;49406;51.044;3.766;2023-05-01T04:43:39;101543.77;;;12.26;98.48
63281;BME280;49406;51.044;3.766;2023-05-01T04:46:13;101545.20;;;12.27;98.28
63281;BME280;49406;51.044;3.766;2023-05-01T04:48:48;101544.23;;;12.20;98.59
63281;BME280;49406;51.044;3.766;2023-05-01T04:51:22;101544.17;;;12.29;98.21
63281;BME280;49406;51.044;3.766;2023-05-01T04:53:57;101550.34;;;12.31;98.10
63281;BME280;49406;51.044;3.766;2023-05-01T04:56:31;101550.17;;;12.33;97.83
63281;BME280;49406;51.044;3.766;2023-05-01T04:59:06;101550.72;;;12.34;98.23
63281;BME280;49406;51.044;3.766;2023-05-01T05:01:40;101550.73;;;12.35;98.30
63281;BME280;49406;51.044;3.766;2023-05-01T05:04:14;101551.41;;;12.34;98.34
63281;BME280;49406;51.044;3.766;2023-05-01T05:06:49;101553.20;;;12.37;98.37
63281;BME280;49406;51.044;3.766;2023-05-01T05:09:23;101549.41;;;12.42;97.98
63281;BME280;49406;51.044;3.766;2023-05-01T05:11:58;101549.71;;;12.54;97.27
63281;BME280;49406;51.044;3.766;2023-05-01T05:14:33;101550.86;;;12.62;96.89
63281;BME280;49406;51.044;3.766;2023-05-01T05:17:07;101557.44;;;12.70;96.81
63281;BME280;49406;51.044;3.766;2023-05-01T05:19:42;101557.52;;;12.76;96.86
63281;BME280;49406;51.044;3.766;2023-05-01T05:22:16;101555.63;;;12.80;97.18
63281;BME280;49406;51.044;3.766;2023-05-01T05:24:54;101556.06;;;12.90;97.12
63281;BME280;49406;51.044;3.766;2023-05-01T05:27:32;101557.46;;;13.07;96.80
63281;BME280;49406;51.044;3.766;2023-05-01T05:30:11;101561.84;;;13.22;96.67
63281;BME280;49406;51.044;3.766;2023-05-01T05:32:46;101565.13;;;13.36;96.76
63281;BME280;49406;51.044;3.766;2023-05-01T05:35:21;101571.49;;;13.41;96.81
63281;BME280;49406;51.044;3.766;2023-05-01T05:37:55;101572.91;;;13.43;96.88
63281;BME280;49406;51.044;3.766;2023-05-01T05:40:30;101569.80;;;13.48;97.14
63281;BME280;49406;51.044;3.766;2023-05-01T05:43:05;101572.42;;;13.47;97.76
63281;BME280;49406;51.044;3.766;2023-05-01T05:45:40;101568.62;;;13.57;97.41
63281;BME280;49406;51.044;3.766;2023-05-01T05:48:15;101571.00;;;13.69;96.73
63281;BME280;49406;51.044;3.766;2023-05-01T05:50:49;101569.63;;;13.76;96.49
63281;BME280;49406;51.044;3.766;2023-05-01T05:53:24;101570.21;;;13.81;96.45
63281;BME280;49406;51.044;3.766;2023-05-01T05:55:59;101571.47;;;13.85;96.41
63281;BME280;49406;51.044;3.766;2023-05-01T05:58:33;101572.20;;;13.91;96.20
63281;BME280;49406;51.044;3.766;2023-05-01T06:01:08;101573.85;;;14.01;96.32
63281;BME280;49406;51.044;3.766;2023-05-01T06:03:43;101569.70;;;14.13;95.43
63281;BME280;49406;51.044;3.766;2023-05-01T06:06:18;101566.73;;;14.19;95.08
63281;BME280;49406;51.044;3.766;2023-05-01T06:08:52;101573.77;;;14.21;95.07
63281;BME280;49406;51.044;3.766;2023-05-01T06:11:27;101575.87;;;14.19;95.44
63281;BME280;49406;51.044;3.766;2023-05-01T06:14:01;101571.30;;;14.19;95.33
63281;BME280;49406;51.044;3.766;2023-05-01T06:16:35;101572.89;;;14.24;95.27
63281;BME280;49406;51.044;3.766;2023-05-01T06:19:10;101577.27;;;14.16;95.69
63281;BME280;49406;51.044;3.766;2023-05-01T06:21:45;101575.05;;;14.30;95.24
63281;BME280;49406;51.044;3.766;2023-05-01T06:24:20;101579.46;;;14.36;94.91
63281;BME280;49406;51.044;3.766;2023-05-01T06:26:54;101578.25;;;14.40;94.70
63281;BME280;49406;51.044;3.766;2023-05-01T06:29:28;101581.45;;;14.42;95.00
63281;BME280;49406;51.044;3.766;2023-05-01T06:32:03;101578.58;;;14.29;95.40
63281;BME280;49406;51.044;3.766;2023-05-01T06:34:37;101580.48;;;14.26;95.76
63281;BME280;49406;51.044;3.766;2023-05-01T06:37:12;101578.52;;;14.22;96.16
63281;BME280;49406;51.044;3.766;2023-05-01T06:39:47;101581.50;;;14.20;96.50
63281;BME280;49406;51.044;3.766;2023-05-01T06:42:22;101583.64;;;14.25;96.24
63281;BME280;49406;51.044;3.766;2023-05-01T06:44:56;101582.45;;;14.35;95.58
63281;BME280;49406;51.044;3.766;2023-05-01T06:47:31;101581.41;;;14.37;95.34
63281;BME280;49406;51.044;3.766;2023-05-01T06:50:06;101583.16;;;14.33;95.36
63281;BME280;49406;51.044;3.766;2023-05-01T06:52:42;101585.95;;;14.28;95.62
63281;BME280;49406;51.044;3.766;2023-05-01T06:55:17;101582.81;;;14.37;95.70
63281;BME280;49406;51.044;3.766;2023-05-01T06:57:51;101580.61;;;14.46;94.35
63281;BME280;49406;51.044;3.766;2023-05-01T07:00:26;101582.30;;;14.43;94.25
63281;BME280;49406;51.044;3.766;2023-05-01T07:03:00;101583.79;;;14.51;93.28
63281;BME280;49406;51.044;3.766;2023-05-01T07:05:36;101585.91;;;14.57;92.73
63281;BME280;49406;51.044;3.766;2023-05-01T07:08:12;101587.88;;;14.62;92.38
63281;BME280;49406;51.044;3.766;2023-05-01T07:10:46;101584.73;;;14.67;92.44
63281;BME280;49406;51.044;3.766;2023-05-01T07:13:21;101586.52;;;14.80;92.10
63281;BME280;49406;51.044;3.766;2023-05-01T07:15:56;101589.71;;;14.92;91.10
63281;BME280;49406;51.044;3.766;2023-05-01T07:18:30;101591.85;;;14.95;89.92
63281;BME280;49406;51.044;3.766;2023-05-01T07:21:05;101593.43;;;14.96;89.72
63281;BME280;49406;51.044;3.766;2023-05-01T07:23:42;101591.86;;;15.09;89.34
63281;BME280;49406;51.044;3.766;2023-05-01T07:26:16;101593.28;;;15.23;87.76
63281;BME280;49406;51.044;3.766;2023-05-01T07:28:51;101596.46;;;15.19;87.27
63281;BME280;49406;51.044;3.766;2023-05-01T07:31:26;101602.61;;;15.10;87.45
63281;BME280;49406;51.044;3.766;2023-05-01T07:34:00;101603.83;;;15.10;87.20
63281;BME280;49406;51.044;3.766;2023-05-01T07:36:35;101605.61;;;15.12;87.16
63281;BME280;49406;51.044;3.766;2023-05-01T07:39:10;101607.73;;;15.19;87.31
63281;BME280;49406;51.044;3.766;2023-05-01T07:41:45;101608.09;;;15.26;86.92
63281;BME280;49406;51.044;3.766;2023-05-01T07:44:20;101610.91;;;15.38;86.22
63281;BME280;49406;51.044;3.766;2023-05-01T07:46:54;101608.98;;;15.39;85.69
63281;BME280;49406;51.044;3.766;2023-05-01T07:49:29;101608.80;;;15.41;85.70
63281;BME280;49406;51.044;3.766;2023-05-01T07:52:03;101610.23;;;15.45;85.09
63281;BME280;49406;51.044;3.766;2023-05-01T07:54:39;101612.34;;;15.48;85.22
63281;BME280;49406;51.044;3.766;2023-05-01T07:57:13;101611.48;;;15.65;85.27
63281;BME280;49406;51.044;3.766;2023-05-01T07:59:48;101608.13;;;15.79;84.50
63281;BME280;49406;51.044;3.766;2023-05-01T08:02:26;101612.70;;;15.86;83.52
63281;BME280;49406;51.044;3.766;2023-05-01T08:05:01;101613.59;;;15.85;83.41
63281;BME280;49406;51.044;3.766;2023-05-01T08:07:36;101615.52;;;15.89;84.35
63281;BME280;49406;51.044;3.766;2023-05-01T08:10:11;101617.77;;;16.05;83.56
63281;BME280;49406;51.044;3.766;2023-05-01T08:12:45;101617.76;;;16.10;82.85
63281;BME280;49406;51.044;3.766;2023-05-01T08:15:20;101615.99;;;16.11;83.26
63281;BME280;49406;51.044;3.766;2023-05-01T08:17:55;101617.77;;;16.16;83.02
63281;BME280;49406;51.044;3.766;2023-05-01T08:20:29;101621.30;;;16.18;83.65
63281;BME280;49406;51.044;3.766;2023-05-01T08:23:04;101622.86;;;16.20;85.75
63281;BME280;49406;51.044;3.766;2023-05-01T08:25:38;101619.66;;;16.26;86.60
63281;BME280;49406;51.044;3.766;2023-05-01T08:28:13;101624.41;;;16.32;85.78
63281;BME280;49406;51.044;3.766;2023-05-01T08:30:48;101624.58;;;16.37;84.57
63281;BME280;49406;51.044;3.766;2023-05-01T08:33:22;101623.66;;;16.46;85.03
63281;BME280;49406;51.044;3.766;2023-05-01T08:35:56;101624.48;;;16.69;83.38
63281;BME280;49406;51.044;3.766;2023-05-01T08:38:31;101616.11;;;16.84;81.72
63281;BME280;49406;51.044;3.766;2023-05-01T08:41:06;101624.17;;;16.94;78.81
63281;BME280;49406;51.044;3.766;2023-05-01T08:43:41;101629.73;;;17.12;77.31
63281;BME280;49406;51.044;3.766;2023-05-01T08:46:22;101633.55;;;17.21;73.83
63281;BME280;49406;51.044;3.766;2023-05-01T08:49:00;101632.59;;;17.33;73.24
63281;BME280;49406;51.044;3.766;2023-05-01T08:51:38;101627.82;;;17.55;71.20
63281;BME280;49406;51.044;3.766;2023-05-01T08:54:12;101628.41;;;17.72;70.17
63281;BME280;49406;51.044;3.766;2023-05-01T08:56:47;101624.80;;;17.83;69.78
63281;BME280;49406;51.044;3.766;2023-05-01T08:59:23;101630.73;;;17.90;68.52
63281;BME280;49406;51.044;3.766;2023-05-01T09:02:02;101631.95;;;17.92;67.33
63281;BME280;49406;51.044;3.766;2023-05-01T09:04:38;101633.31;;;17.98;67.78
63281;BME280;49406;51.044;3.766;2023-05-01T09:07:13;101636.66;;;18.16;68.21
63281;BME280;49406;51.044;3.766;2023-05-01T09:09:48;101640.30;;;18.40;66.86
63281;BME280;49406;51.044;3.766;2023-05-01T09:12:25;101640.24;;;18.44;63.40
63281;BME280;49406;51.044;3.766;2023-05-01T09:15:01;101642.30;;;18.36;64.12
63281;BME280;49406;51.044;3.766;2023-05-01T09:17:35;101643.42;;;18.30;61.91
63281;BME280;49406;51.044;3.766;2023-05-01T09:20:11;101644.44;;;18.17;62.32
63281;BME280;49406;51.044;3.766;2023-05-01T09:22:46;101643.06;;;18.13;62.34
63281;BME280;49406;51.044;3.766;2023-05-01T09:25:21;101640.23;;;18.13;61.05
63281;BME280;49406;51.044;3.766;2023-05-01T09:27:55;101647.40;;;18.22;60.91
63281;BME280;49406;51.044;3.766;2023-05-01T09:30:35;101646.63;;;18.45;60.91
63281;BME280;49406;51.044;3.766;2023-05-01T09:33:11;101647.71;;;18.56;58.98
63281;BME280;49406;51.044;3.766;2023-05-01T09:35:53;101645.77;;;18.56;58.94
63281;BME280;49406;51.044;3.766;2023-05-01T09:38:28;101645.89;;;18.62;58.78
63281;BME280;49406;51.044;3.766;2023-05-01T09:41:05;101646.67;;;18.55;57.30
63281;BME280;49406;51.044;3.766;2023-05-01T09:43:40;101652.84;;;18.26;57.27
63281;BME280;49406;51.044;3.766;2023-05-01T09:46:15;101656.14;;;18.16;58.31
63281;BME280;49406;51.044;3.766;2023-05-01T09:48:58;101654.48;;;18.22;58.87
63281;BME280;49406;51.044;3.766;2023-05-01T09:51:33;101657.17;;;18.50;59.20
63281;BME280;49406;51.044;3.766;2023-05-01T09:54:18;101657.34;;;18.83;57.74
63281;BME280;49406;51.044;3.766;2023-05-01T09:56:52;101666.11;;;19.40;55.94
63281;BME280;49406;51.044;3.766;2023-05-01T09:59:27;101658.75;;;19.59;54.79
63281;BME280;49406;51.044;3.766;2023-05-01T10:02:03;101662.02;;;19.65;54.36
63281;BME280;49406;51.044;3.766;2023-05-01T10:04:38;101659.98;;;19.70;53.27
63281;BME280;49406;51.044;3.766;2023-05-01T10:07:14;101664.98;;;19.68;52.70
63281;BME280;49406;51.044;3.766;2023-05-01T10:09:48;101665.98;;;19.60;53.18
63281;BME280;49406;51.044;3.766;2023-05-01T10:12:25;101665.06;;;19.51;52.88
63281;BME280;49406;51.044;3.766;2023-05-01T10:14:59;101668.33;;;19.80;53.29
63281;BME280;49406;51.044;3.766;2023-05-01T10:17:36;101664.41;;;19.91;52.57
63281;BME280;49406;51.044;3.766;2023-05-01T10:20:12;101668.18;;;19.78;52.76
63281;BME280;49406;51.044;3.766;2023-05-01T10:22:47;101669.45;;;19.76;52.86
63281;BME280;49406;51.044;3.766;2023-05-01T10:25:21;101666.90;;;19.70;53.09
63281;BME280;49406;51.044;3.766;2023-05-01T10:27:58;101666.59;;;19.68;52.93
63281;BME280;49406;51.044;3.766;2023-05-01T10:30:36;101661.94;;;19.70;52.46
63281;BME280;49406;51.044;3.766;2023-05-01T10:33:13;101671.60;;;19.75;51.92
63281;BME280;49406;51.044;3.766;2023-05-01T10:35:53;101670.48;;;19.78;52.30
63281;BME280;49406;51.044;3.766;2023-05-01T10:38:32;101675.08;;;19.79;51.38
63281;BME280;49406;51.044;3.766;2023-05-01T10:41:07;101676.89;;;19.77;51.90
63281;BME280;49406;51.044;3.766;2023-05-01T10:43:40;101680.00;;;19.82;51.49
63281;BME280;49406;51.044;3.766;2023-05-01T10:46:30;101680.36;;;19.82;51.80
63281;BME280;49406;51.044;3.766;2023-05-01T10:49:02;101681.91;;;19.85;51.48
63281;BME280;49406;51.044;3.766;2023-05-01T10:52:00;101681.31;;;19.99;51.51
63281;BME280;49406;51.044;3.766;2023-05-01T10:54:35;101677.28;;;20.06;50.53
63281;BME280;49406;51.044;3.766;2023-05-01T11:00:19;101663.96;;;20.26;50.04
63281;BME280;49406;51.044;3.766;2023-05-01T11:06:09;101673.75;;;20.44;50.33
63281;BME280;49406;51.044;3.766;2023-05-01T11:08:43;101674.23;;;20.47;49.31
63281;BME280;49406;51.044;3.766;2023-05-01T11:11:46;101672.40;;;20.29;49.82
63281;BME280;49406;51.044;3.766;2023-05-01T11:14:23;101674.95;;;20.18;49.43
63281;BME280;49406;51.044;3.766;2023-05-01T11:16:58;101679.18;;;20.08;49.50
63281;BME280;49406;51.044;3.766;2023-05-01T11:19:47;101684.70;;;19.78;50.01
63281;BME280;49406;51.044;3.766;2023-05-01T11:22:22;101680.06;;;19.57;50.93
63281;BME280;49406;51.044;3.766;2023-05-01T11:24:58;101688.42;;;19.54;51.88
63281;BME280;49406;51.044;3.766;2023-05-01T11:27:32;101688.42;;;19.41;52.25
63281;BME280;49406;51.044;3.766;2023-05-01T11:30:09;101683.29;;;19.16;53.27
63281;BME280;49406;51.044;3.766;2023-05-01T11:32:46;101682.98;;;19.01;54.41
63281;BME280;49406;51.044;3.766;2023-05-01T11:35:22;101682.29;;;18.98;55.01
63281;BME280;49406;51.044;3.766;2023-05-01T11:37:58;101678.27;;;18.94;54.97
63281;BME280;49406;51.044;3.766;2023-05-01T11:40:33;101679.66;;;18.83;55.44
63281;BME280;49406;51.044;3.766;2023-05-01T11:43:08;101680.41;;;18.64;56.65
63281;BME280;49406;51.044;3.766;2023-05-01T11:45:44;101679.20;;;18.44;57.78
63281;BME280;49406;51.044;3.766;2023-05-01T11:48:23;101676.45;;;18.37;58.17
63281;BME280;49406;51.044;3.766;2023-05-01T11:50:57;101676.00;;;18.61;57.14
63281;BME280;49406;51.044;3.766;2023-05-01T11:53:34;101676.45;;;19.10;54.98
63281;BME280;49406;51.044;3.766;2023-05-01T11:56:20;101671.11;;;19.49;53.96
63281;BME280;49406;51.044;3.766;2023-05-01T11:58:56;101671.55;;;19.99;51.94
63281;BME280;49406;51.044;3.766;2023-05-01T12:01:38;101670.21;;;20.04;51.98
63281;BME280;49406;51.044;3.766;2023-05-01T12:04:21;101670.71;;;19.96;51.77
63281;BME280;49406;51.044;3.766;2023-05-01T12:06:56;101678.14;;;19.76;52.26
63281;BME280;49406;51.044;3.766;2023-05-01T12:09:31;101681.10;;;19.58;52.40
63281;BME280;49406;51.044;3.766;2023-05-01T12:12:06;101683.04;;;19.46;53.25
63281;BME280;49406;51.044;3.766;2023-05-01T12:14:41;101680.56;;;19.34;52.81
63281;BME280;49406;51.044;3.766;2023-05-01T12:17:15;101681.12;;;19.44;51.86
63281;BME280;49406;51.044;3.766;2023-05-01T12:19:50;101677.16;;;19.60;52.06
63281;BME280;49406;51.044;3.766;2023-05-01T12:22:25;101681.06;;;19.71;51.82
63281;BME280;49406;51.044;3.766;2023-05-01T12:25:01;101678.64;;;19.68;51.27
63281;BME280;49406;51.044;3.766;2023-05-01T12:27:44;101679.26;;;19.74;52.23
63281;BME280;49406;51.044;3.766;2023-05-01T12:30:26;101684.86;;;19.89;51.32
63281;BME280;49406;51.044;3.766;2023-05-01T12:33:08;101680.59;;;19.89;50.89
63281;BME280;49406;51.044;3.766;2023-05-01T12:35:44;101678.16;;;19.64;50.59
63281;BME280;49406;51.044;3.766;2023-05-01T12:38:21;101671.06;;;19.65;50.22
63281;BME280;49406;51.044;3.766;2023-05-01T12:40:57;101673.27;;;19.47;49.82
63281;BME280;49406;51.044;3.766;2023-05-01T12:43:33;101672.81;;;19.41;51.11
63281;BME280;49406;51.044;3.766;2023-05-01T12:46:14;101676.58;;;19.51;51.33
63281;BME280;49406;51.044;3.766;2023-05-01T12:48:48;101672.62;;;19.68;49.76
63281;BME280;49406;51.044;3.766;2023-05-01T12:51:23;101672.86;;;19.84;49.87
63281;BME280;49406;51.044;3.766;2023-05-01T12:53:59;101669.66;;;20.34;50.12
63281;BME280;49406;51.044;3.766;2023-05-01T12:56:34;101668.86;;;20.66;48.43
63281;BME280;49406;51.044;3.766;2023-05-01T12:59:20;101668.92;;;20.36;48.21
63281;BME280;49406;51.044;3.766;2023-05-01T13:02:00;101665.15;;;20.09;49.33
63281;BME280;49406;51.044;3.766;2023-05-01T13:04:35;101664.97;;;20.09;49.52
63281;BME280;49406;51.044;3.766;2023-05-01T13:07:14;101664.52;;;20.16;49.40
63281;BME280;49406;51.044;3.766;2023-05-01T13:09:56;101668.50;;;20.19;48.80
63281;BME280;49406;51.044;3.766;2023-05-01T13:12:32;101667.53;;;20.44;48.60
63281;BME280;49406;51.044;3.766;2023-05-01T13:15:08;101669.29;;;20.46;48.79
63281;BME280;49406;51.044;3.766;2023-05-01T13:17:52;101671.39;;;20.47;48.73
63281;BME280;49406;51.044;3.766;2023-05-01T13:20:26;101674.00;;;20.20;49.29
63281;BME280;49406;51.044;3.766;2023-05-01T13:23:10;101675.87;;;20.15;50.11
63281;BME280;49406;51.044;3.766;2023-05-01T13:25:45;101672.73;;;20.40;49.91
63281;BME280;49406;51.044;3.766;2023-05-01T13:28:20;101675.98;;;20.57;49.69
63281;BME280;49406;51.044;3.766;2023-05-01T13:30:55;101673.96;;;20.52;49.09
63281;BME280;49406;51.044;3.766;2023-05-01T13:33:31;101670.70;;;20.36;49.32
63281;BME280;49406;51.044;3.766;2023-05-01T13:36:06;101675.98;;;19.98;50.05
63281;BME280;49406;51.044;3.766;2023-05-01T13:38:46;101680.67;;;19.74;50.95
63281;BME280;49406;51.044;3.766;2023-05-01T13:41:23;101683.77;;;19.57;50.84
63281;BME280;49406;51.044;3.766;2023-05-01T13:43:58;101686.90;;;19.36;51.43